Time;durP1;ratioP1;P1;durP2;ratioP2;P2;SDS_P1;SDS_P2;PMS_P1;PMS_P2;Temp;Humidity;BMP_temperature;BMP_pressure;BME280_temperature;BME280_humidity;BME280_pressure;Samples;Min_cycle;Max_cycle;Signal;HPM_P1;HPM_P2
2022/01/26 00:05:47;;;;;;;8.45;6.30;;;;;;;19.12;44.77;101891.78;4982150;28;20077;-39
2022/01/26 00:06:16;;;;;;;8.25;5.93;;;;;;;19.07;44.86;101889.63;4974684;28;20053;-39
2022/01/26 00:08:42;;;;;;;5.55;4.55;;;;;;;19.06;44.74;101892.44;4988171;28;20043;-39
2022/01/26 00:11:08;;;;;;;7.72;5.65;;;;;;;19.04;44.69;101889.13;4985162;28;20045;-39
2022/01/26 00:13:34;;;;;;;7.97;5.05;;;;;;;19.03;44.69;101883.03;4977620;28;20399;-39
2022/01/26 00:16:03;;;;;;;6.20;5.60;;;;;;;19.02;44.53;101877.91;4982685;28;20107;-38
2022/01/26 00:18:31;;;;;;;7.90;5.72;;;;;;;19.01;44.54;101879.72;4968647;28;20114;-39
2022/01/26 00:21:05;;;;;;;6.57;5.53;;;;;;;18.99;44.55;101880.88;4969847;28;20039;-39
2022/01/26 00:26:30;;;;;;;8.48;5.55;;;;;;;18.97;44.34;101874.94;4982463;28;20108;-39
2022/01/26 00:29:13;;;;;;;5.75;5.13;;;;;;;18.95;44.36;101874.28;4986158;28;20140;-39
2022/01/26 00:40:05;;;;;;;6.05;4.68;;;;;;;18.88;44.33;101874.97;4988436;28;20492;-39
2022/01/26 00:42:36;;;;;;;5.57;4.75;;;;;;;18.88;44.28;101869.69;4968735;28;20022;-39
2022/01/26 00:45:04;;;;;;;7.78;5.90;;;;;;;18.88;44.32;101869.69;4986400;28;20038;-39
2022/01/26 00:47:29;;;;;;;7.20;6.50;;;;;;;18.90;44.34;101870.31;4989634;28;20097;-38
2022/01/26 00:49:59;;;;;;;7.65;6.25;;;;;;;18.90;44.54;101872.16;4972830;28;20030;-39
2022/01/26 00:52:37;;;;;;;7.88;5.93;;;;;;;18.89;44.39;101866.06;4977282;28;20025;-38
2022/01/26 00:55:03;;;;;;;7.10;6.40;;;;;;;18.90;44.48;101867.69;4985700;28;20042;-39
2022/01/26 00:57:29;;;;;;;7.07;5.85;;;;;;;18.89;44.45;101865.22;4978164;28;20034;-39
2022/01/26 00:59:55;;;;;;;6.32;5.47;;;;;;;18.89;44.48;101859.94;4970564;28;20030;-39
2022/01/26 01:02:20;;;;;;;6.38;4.57;;;;;;;18.88;44.55;101863.56;4981064;28;20050;-39
2022/01/26 01:04:46;;;;;;;6.95;5.70;;;;;;;18.87;44.34;101857.47;4996671;28;20540;-39
2022/01/26 01:07:17;;;;;;;5.45;4.82;;;;;;;18.85;44.00;101856.81;4983529;28;20093;-38
2022/01/26 01:09:43;;;;;;;5.53;4.75;;;;;;;18.83;44.09;101858.78;4969260;28;20081;-39
2022/01/26 01:12:09;;;;;;;7.50;5.05;;;;;;;18.81;44.06;101855.50;4988177;28;20540;-39
2022/01/26 01:14:37;;;;;;;4.40;4.00;;;;;;;18.79;44.05;101854.81;4985248;28;20027;-39
2022/01/26 01:17:05;;;;;;;6.00;4.85;;;;;;;18.79;44.05;101857.47;4967935;28;20069;-39
2022/01/26 01:19:39;;;;;;;5.90;4.80;;;;;;;18.79;43.93;101846.06;4983097;28;20039;-43
2022/01/26 01:22:27;;;;;;;6.28;4.60;;;;;;;18.80;43.88;101856.47;4983149;28;20054;-38
2022/01/26 01:25:20;;;;;;;5.93;4.20;;;;;;;18.78;43.94;101860.28;4976048;28;20042;-39
2022/01/26 01:32:51;;;;;;;6.05;4.63;;;;;;;18.78;43.82;101855.81;4984431;28;20035;-39
2022/01/26 01:35:17;;;;;;;5.22;4.47;;;;;;;18.76;43.87;101849.03;4965006;28;20056;-39
2022/01/26 01:37:42;;;;;;;5.18;4.10;;;;;;;18.77;43.82;101840.97;4986388;28;20066;-39
2022/01/26 01:40:08;;;;;;;4.80;3.80;;;;;;;18.77;43.84;101851.53;4982365;28;20073;-39
2022/01/26 01:42:35;;;;;;;5.70;4.82;;;;;;;18.77;43.82;101848.06;4986983;28;20197;-39
2022/01/26 01:45:01;;;;;;;5.20;4.03;;;;;;;18.77;43.85;101851.53;4980910;28;20030;-38
2022/01/26 01:47:26;;;;;;;6.03;5.40;;;;;;;18.75;43.79;101847.41;4986085;28;20026;-39
2022/01/26 01:49:52;;;;;;;3.88;3.47;;;;;;;18.73;43.81;101852.84;4991591;28;20038;-39
2022/01/26 01:52:18;;;;;;;4.93;4.20;;;;;;;18.70;43.85;101853.16;4985857;28;20026;-39
2022/01/26 01:54:50;;;;;;;5.78;5.07;;;;;;;18.71;43.77;101851.34;4974156;28;20862;-40
2022/01/26 01:57:23;;;;;;;5.97;4.82;;;;;;;18.71;43.89;101851.34;5001131;28;20038;-38
2022/01/26 01:59:49;;;;;;;6.28;5.32;;;;;;;18.71;43.93;101848.72;5006157;28;20107;-39
2022/01/26 02:02:15;;;;;;;5.22;4.70;;;;;;;18.72;43.92;101847.72;5010067;28;20037;-39
2022/01/26 02:04:41;;;;;;;5.97;5.32;;;;;;;18.72;43.86;101853.00;5000548;28;20484;-39
2022/01/26 02:07:06;;;;;;;5.20;4.70;;;;;;;18.70;43.94;101850.53;5008515;28;20030;-39
2022/01/26 02:09:32;;;;;;;6.32;5.05;;;;;;;18.69;43.82;101848.88;5007954;28;20066;-39
2022/01/26 02:12:00;;;;;;;5.30;4.80;;;;;;;18.68;43.61;101847.22;5256736;23;20425;-39
2022/01/26 02:14:31;;;;;;;5.72;5.13;;;;;;;18.69;43.73;101837.50;4989655;28;20034;-38
2022/01/26 02:17:23;;;;;;;5.63;4.78;;;;;;;18.67;44.01;101840.28;4989508;28;20508;-39
2022/01/26 02:55:37;;;;;;;4.15;3.58;;;;;;;18.38;43.25;101802.97;4989327;28;20387;-38
2022/01/26 03:03:28;;;;;;;5.43;4.38;;;;;;;18.34;43.21;101809.56;4989505;28;20101;-38
2022/01/26 03:06:02;;;;;;;4.68;3.85;;;;;;;18.33;43.03;101806.09;4987687;28;20045;-38
2022/01/26 03:08:34;;;;;;;4.47;3.97;;;;;;;18.33;42.81;101800.00;4989117;28;20045;-39
2022/01/26 03:11:06;;;;;;;5.47;4.95;;;;;;;18.34;43.09;101797.19;4971316;28;20053;-39
2022/01/26 03:13:34;;;;;;;7.28;5.47;;;;;;;18.35;43.03;101788.28;4971135;28;20422;-38
2022/01/26 03:16:10;;;;;;;6.70;4.90;;;;;;;18.39;43.17;101788.78;4971079;28;20034;-41
2022/01/26 03:18:58;;;;;;;5.80;4.70;;;;;;;18.38;43.08;101784.50;4987242;28;20122;-38
2022/01/26 03:21:35;;;;;;;5.85;4.57;;;;;;;18.39;43.22;101783.50;4988927;28;20035;-38
2022/01/26 03:34:32;;;;;;;5.22;4.72;;;;;;;18.38;43.14;101787.97;4988923;28;20495;-39
2022/01/26 03:37:03;;;;;;;4.85;3.88;;;;;;;18.39;43.08;101784.34;4971007;28;20096;-38
2022/01/26 03:39:30;;;;;;;7.30;4.70;;;;;;;18.38;43.17;101782.69;4971135;28;20030;-38
2022/01/26 03:42:09;;;;;;;5.00;4.50;;;;;;;18.39;42.91;101788.78;4971076;28;20034;-38
2022/01/26 03:44:35;;;;;;;5.95;4.50;;;;;;;18.37;43.11;101783.69;4971006;28;20041;-38
2022/01/26 03:47:01;;;;;;;5.00;3.95;;;;;;;18.37;43.07;101790.75;4988523;28;20022;-39
2022/01/26 03:49:27;;;;;;;4.90;4.40;;;;;;;18.37;43.02;101782.84;4988299;28;20029;-38
2022/01/26 03:51:53;;;;;;;5.30;4.70;;;;;;;18.37;43.08;101778.41;4988176;28;20440;-38
2022/01/26 03:54:20;;;;;;;5.28;4.78;;;;;;;18.37;42.98;101777.56;4988161;28;20337;-38
2022/01/26 03:56:45;;;;;;;5.13;4.35;;;;;;;18.36;42.99;101773.28;4988089;28;20030;-39
2022/01/26 03:59:11;;;;;;;4.72;4.25;;;;;;;18.36;42.98;101773.28;4988082;28;20073;-38
2022/01/26 04:01:38;;;;;;;4.72;4.22;;;;;;;18.35;42.94;101769.00;4988056;28;20465;-38
2022/01/26 04:04:04;;;;;;;4.72;4.22;;;;;;;18.35;42.94;101772.47;4970358;28;20481;-38
2022/01/26 04:06:31;;;;;;;5.78;4.65;;;;;;;18.34;42.91;101777.91;4988025;28;20657;-38
2022/01/26 04:08:56;;;;;;;3.88;3.53;;;;;;;18.32;42.93;101770.16;4987187;28;20030;-38
2022/01/26 04:13:51;;;;;;;4.97;4.43;;;;;;;18.24;42.53;101772.78;4987542;28;20084;-39
2022/01/26 04:16:17;;;;;;;5.07;3.50;;;;;;;18.22;42.54;101761.56;4987747;28;20038;-39
2022/01/26 04:18:43;;;;;;;3.70;3.30;;;;;;;18.19;42.57;101770.63;4987910;28;20072;-38
2022/01/26 04:21:58;;;;;;;4.55;4.00;;;;;;;18.17;42.63;101769.94;4970127;28;20022;-38
2022/01/26 04:24:03;;;;;;;5.63;3.67;;;;;;;18.15;42.50;101765.81;4974447;28;20065;-38
2022/01/26 04:26:35;;;;;;;4.75;4.35;;;;;;;18.16;42.50;101757.75;4970107;28;20045;-38
2022/01/26 04:29:06;;;;;;;4.80;4.30;;;;;;;18.17;42.49;101759.41;4969958;28;20369;-38
2022/01/26 04:31:32;;;;;;;5.10;4.60;;;;;;;18.21;42.75;101770.47;4970061;28;20034;-38
2022/01/26 04:33:57;;;;;;;5.60;3.92;;;;;;;18.20;42.65;101766.16;4987435;28;20053;-38
2022/01/26 04:36:42;;;;;;;5.25;4.40;;;;;;;18.20;42.58;101764.34;4987362;28;20022;-38
2022/01/26 04:39:12;;;;;;;4.88;4.38;;;;;;;18.19;42.68;101761.88;4963930;28;20037;-39
2022/01/26 04:44:23;;;;;;;4.63;4.22;;;;;;;18.20;42.62;101769.63;4987621;28;20046;-38
2022/01/26 04:46:49;;;;;;;4.30;3.90;;;;;;;18.18;42.63;101771.59;4969855;28;20336;-39
2022/01/26 04:49:14;;;;;;;4.75;4.25;;;;;;;18.19;42.57;101764.50;4987334;28;20033;-38
2022/01/26 04:51:40;;;;;;;5.65;4.45;;;;;;;18.19;42.67;101769.78;4987391;28;20034;-38
2022/01/26 04:54:05;;;;;;;6.40;4.88;;;;;;;18.18;42.61;101765.50;4987485;28;20026;-38
2022/01/26 04:56:31;;;;;;;4.63;3.28;;;;;;;18.16;42.37;101765.66;4987368;28;20065;-43
2022/01/26 04:58:56;;;;;;;3.42;3.13;;;;;;;18.13;42.48;101765.16;4987392;28;20038;-39
2022/01/26 05:01:22;;;;;;;3.38;3.08;;;;;;;18.09;42.25;101772.56;4987209;28;20089;-38
2022/01/26 05:03:47;;;;;;;3.63;2.88;;;;;;;18.07;42.40;101768.44;4987004;28;20081;-39
2022/01/26 05:06:13;;;;;;;4.55;4.05;;;;;;;18.06;42.40;101767.63;4987392;28;20026;-38
2022/01/26 05:08:38;;;;;;;3.78;3.35;;;;;;;18.04;42.16;101752.94;4969940;28;20467;-38
2022/01/26 05:11:06;;;;;;;4.63;3.17;;;;;;;18.04;42.33;101751.13;4987430;28;20434;-38
2022/01/26 05:13:32;;;;;;;4.32;3.78;;;;;;;18.05;42.31;101755.41;4969319;28;20293;-38
2022/01/26 05:15:57;;;;;;;3.72;3.40;;;;;;;18.08;42.23;101759.53;4986860;28;20026;-38
2022/01/26 05:18:24;;;;;;;4.65;3.53;;;;;;;18.10;42.17;101755.75;4980270;28;20038;-38
2022/01/26 05:20:50;;;;;;;4.90;3.35;;;;;;;18.12;42.20;101753.78;4988806;28;20037;-39
2022/01/26 05:23:16;;;;;;;4.38;3.63;;;;;;;18.14;42.15;101759.72;4973761;28;20117;-39
2022/01/26 05:25:41;;;;;;;4.78;3.80;;;;;;;18.16;42.29;101752.47;4990726;28;20221;-38
2022/01/26 05:28:07;;;;;;;5.13;3.95;;;;;;;18.20;42.29;101759.06;4991011;28;20449;-38
2022/01/26 05:30:32;;;;;;;4.25;3.83;;;;;;;18.23;42.21;101766.66;4990815;28;20026;-39
2022/01/26 05:32:58;;;;;;;3.72;3.40;;;;;;;18.25;42.26;101758.59;4991056;28;20080;-38
2022/01/26 05:35:23;;;;;;;4.97;4.07;;;;;;;18.29;42.26;101765.19;4990918;28;20046;-38
2022/01/26 05:37:49;;;;;;;4.18;3.67;;;;;;;18.31;42.35;101755.31;4990410;28;20046;-38
2022/01/26 05:40:15;;;;;;;5.22;4.20;;;;;;;18.34;42.26;101764.72;4990887;28;20362;-38
2022/01/26 05:42:41;;;;;;;5.13;4.38;;;;;;;18.37;42.24;101756.47;4990701;28;20023;-38
2022/01/26 05:45:17;;;;;;;4.05;3.58;;;;;;;18.43;42.13;101758.44;4990571;28;20038;-38
2022/01/26 05:47:43;;;;;;;4.10;3.70;;;;;;;18.46;41.99;101758.91;4972829;28;20036;-38
2022/01/26 05:50:08;;;;;;;4.40;4.00;;;;;;;18.50;41.99;101756.78;4990813;28;20030;-38
2022/01/26 05:52:34;;;;;;;4.18;3.78;;;;;;;18.55;41.86;101757.94;4990811;28;20026;-38
2022/01/26 05:54:59;;;;;;;4.15;3.55;;;;;;;18.58;41.83;101754.13;4990483;28;20477;-38
2022/01/26 05:57:25;;;;;;;4.35;3.95;;;;;;;18.62;41.77;101752.03;4990191;28;20026;-38
2022/01/26 05:59:53;;;;;;;6.93;4.15;;;;;;;18.66;41.71;101748.88;4990669;28;20034;-40
2022/01/26 06:02:18;;;;;;;4.25;3.85;;;;;;;18.72;41.60;101756.16;4989307;28;20034;-38
2022/01/26 06:04:44;;;;;;;5.07;4.03;;;;;;;18.77;41.50;101756.47;4987698;28;20389;-38
2022/01/26 06:07:10;;;;;;;5.28;4.20;;;;;;;18.81;41.36;101757.78;4987839;28;20513;-39
2022/01/26 06:09:36;;;;;;;4.25;3.70;;;;;;;18.84;41.36;101756.63;4989807;28;20097;-39
2022/01/26 06:12:02;;;;;;;4.18;3.78;;;;;;;18.85;41.37;101763.56;4988917;28;20050;-39
2022/01/26 06:14:27;;;;;;;5.32;4.43;;;;;;;18.88;41.24;101757.94;4989938;28;20217;-39
2022/01/26 06:16:53;;;;;;;4.25;3.85;;;;;;;18.90;41.09;101755.97;4989340;28;20446;-39
2022/01/26 06:19:18;;;;;;;4.13;3.72;;;;;;;18.92;41.12;101751.31;4988619;28;20450;-39
2022/01/26 06:21:44;;;;;;;4.20;3.72;;;;;;;18.95;41.11;101755.44;4987798;28;20081;-38
2022/01/26 06:24:09;;;;;;;3.88;3.47;;;;;;;18.97;41.08;101753.44;4988169;28;20033;-38
2022/01/26 06:26:35;;;;;;;4.43;3.88;;;;;;;18.99;41.05;101752.28;4988953;28;20046;-39
2022/01/26 06:29:00;;;;;;;4.55;4.15;;;;;;;19.01;41.03;101754.78;4989839;28;20117;-39
2022/01/26 06:31:27;;;;;;;3.67;3.33;;;;;;;19.02;40.93;101765.16;4988933;28;20034;-39
2022/01/26 06:33:53;;;;;;;4.50;3.83;;;;;;;19.04;40.91;101757.06;4968533;28;20406;-38
2022/01/26 06:36:19;;;;;;;5.13;3.72;;;;;;;19.05;40.92;101758.72;4973883;28;20034;-39
2022/01/26 06:38:46;;;;;;;4.38;3.97;;;;;;;19.06;40.98;101763.84;4973667;28;20042;-39
2022/01/26 06:41:13;;;;;;;4.38;3.70;;;;;;;19.08;40.93;101763.66;4987978;28;20117;-39
2022/01/26 06:43:49;;;;;;;3.78;3.15;;;;;;;19.10;41.02;101762.50;4970428;28;20512;-39
2022/01/26 06:46:24;;;;;;;3.92;3.35;;;;;;;19.09;41.04;101755.56;4987762;28;20038;-39
2022/01/26 06:51:24;;;;;;;4.22;3.83;;;;;;;19.13;40.99;101756.91;4988114;28;20034;-39
2022/01/26 06:53:50;;;;;;;4.35;3.83;;;;;;;19.15;41.17;101764.66;4987329;28;20044;-39
2022/01/26 06:56:15;;;;;;;3.88;3.42;;;;;;;19.18;41.32;101767.78;4986957;28;20062;-40
2022/01/26 06:58:41;;;;;;;6.50;3.50;;;;;;;19.21;41.15;101761.34;4987535;28;20038;-39
2022/01/26 07:01:06;;;;;;;3.97;3.22;;;;;;;19.22;41.26;101766.44;4987229;28;20030;-38
2022/01/26 07:03:31;;;;;;;4.32;3.45;;;;;;;19.24;41.20;101763.63;4988638;28;20027;-38
2022/01/26 07:05:57;;;;;;;3.83;3.42;;;;;;;19.26;41.17;101772.22;4988243;28;20069;-39
2022/01/26 07:08:23;;;;;;;3.40;3.10;;;;;;;19.27;41.16;101771.22;4988416;28;20030;-39
2022/01/26 07:10:51;;;;;;;3.72;3.30;;;;;;;19.27;41.14;101765.94;4987983;28;20034;-39
2022/01/26 07:13:17;;;;;;;3.50;3.20;;;;;;;19.28;41.14;101764.13;4970224;28;20501;-40
2022/01/26 07:21:25;;;;;;;4.80;3.20;;;;;;;19.28;41.13;101764.94;4977260;28;20188;-40
2022/01/26 07:23:52;;;;;;;3.35;3.05;;;;;;;19.29;41.01;101768.41;4987955;28;20038;-40
2022/01/26 07:26:18;;;;;;;5.10;3.22;;;;;;;19.29;41.03;101757.84;4988405;28;20343;-39
2022/01/26 07:28:43;;;;;;;3.42;3.13;;;;;;;19.28;41.14;101758.84;4970232;28;20442;-42
2022/01/26 07:31:10;;;;;;;4.32;3.42;;;;;;;19.27;40.92;101757.19;4989230;28;20045;-39
2022/01/26 07:33:38;;;;;;;4.88;3.53;;;;;;;19.26;40.94;101760.81;4981841;28;20055;-39
2022/01/26 07:36:04;;;;;;;4.78;3.15;;;;;;;19.26;40.89;101761.66;4982656;28;20042;-39
2022/01/26 07:38:31;;;;;;;4.38;3.42;;;;;;;19.23;40.93;101759.34;4986771;28;20033;-39
2022/01/26 07:40:56;;;;;;;4.07;3.55;;;;;;;19.23;40.55;101762.81;4986784;28;20085;-40
2022/01/26 07:43:22;;;;;;;4.63;3.72;;;;;;;19.22;40.92;101765.63;4987184;28;20046;-39
2022/01/26 07:45:48;;;;;;;3.72;3.30;;;;;;;19.21;40.83;101761.34;4988647;28;20034;-39
2022/01/26 07:48:13;;;;;;;4.60;2.90;;;;;;;19.20;40.96;101757.03;4986623;28;20038;-39
2022/01/26 07:50:39;;;;;;;4.03;2.92;;;;;;;19.19;40.85;101763.31;4987980;28;20023;-40
2022/01/26 07:53:04;;;;;;;4.15;3.75;;;;;;;19.17;40.98;101762.66;4986048;28;20026;-40
2022/01/26 07:55:31;;;;;;;4.35;3.38;;;;;;;19.16;40.84;101763.66;4970737;28;20026;-40
2022/01/26 07:57:57;;;;;;;4.43;3.30;;;;;;;19.16;40.85;101766.31;4986156;28;20034;-40
2022/01/26 08:00:24;;;;;;;3.53;3.17;;;;;;;19.15;40.70;101762.00;4970253;28;20035;-40
2022/01/26 08:02:50;;;;;;;6.20;3.95;;;;;;;19.13;40.58;101761.34;4977907;28;20121;-40
2022/01/26 08:05:16;;;;;;;4.88;3.33;;;;;;;19.11;40.58;101763.34;4968099;28;20097;-39
2022/01/26 08:07:42;;;;;;;4.85;3.78;;;;;;;19.09;40.45;101763.50;4961809;28;20038;-39
2022/01/26 08:10:09;;;;;;;4.95;3.88;;;;;;;19.08;40.52;101759.22;4987481;28;20038;-39
2022/01/26 08:12:36;;;;;;;5.53;4.18;;;;;;;19.07;40.51;101762.84;4978947;28;20068;-39
2022/01/26 08:15:02;;;;;;;4.70;3.72;;;;;;;19.07;40.44;101759.38;4968525;28;20031;-40
2022/01/26 08:17:28;;;;;;;7.38;3.63;;;;;;;19.06;40.66;101766.47;4987000;28;20111;-39
2022/01/26 08:19:55;;;;;;;3.08;2.78;;;;;;;19.06;40.84;101765.66;4988140;28;20034;-39
2022/01/26 08:22:24;;;;;;;4.15;3.70;;;;;;;19.06;40.89;101761.19;4964978;28;20030;-40
2022/01/26 08:24:50;;;;;;;7.75;4.07;;;;;;;19.06;40.91;101760.38;4960239;28;20034;-38
2022/01/26 08:27:18;;;;;;;3.65;3.30;;;;;;;19.04;41.00;101770.28;4985868;28;20033;-40
2022/01/26 08:29:48;;;;;;;7.70;3.70;;;;;;;19.05;40.81;101770.13;4970409;28;20161;-39
2022/01/26 08:32:14;;;;;;;3.80;3.50;;;;;;;19.06;41.27;101765.66;4984874;28;20030;-39
2022/01/26 08:34:39;;;;;;;5.57;4.18;;;;;;;19.07;41.24;101762.03;4985676;28;20219;-38
2022/01/26 08:37:05;;;;;;;7.07;4.05;;;;;;;19.09;41.44;101760.03;4984470;28;20049;-40
2022/01/26 08:39:32;;;;;;;14.05;4.05;;;;;;;19.10;41.53;101764.31;4986343;28;20359;-44
2022/01/26 08:41:59;;;;;;;6.60;4.22;;;;;;;19.08;41.93;101763.66;4983951;28;20121;-41
2022/01/26 08:44:25;;;;;;;22.67;11.30;;;;;;;19.13;44.07;101771.91;4985636;28;20056;-50
2022/01/26 08:46:52;;;;;;;7.72;5.90;;;;;;;19.16;44.03;101774.22;4969227;28;20038;-38
2022/01/26 08:49:17;;;;;;;16.10;8.50;;;;;;;19.18;46.45;101777.53;4982920;28;20064;-42
2022/01/26 08:51:43;;;;;;;8.57;5.65;;;;;;;19.18;45.54;101781.00;4989959;28;20073;-39
2022/01/26 08:54:10;;;;;;;9.80;4.85;;;;;;;19.17;44.77;101778.50;5002578;28;20170;-40
2022/01/26 08:56:36;;;;;;;8.30;4.40;;;;;;;19.13;44.53;101777.19;4963588;28;20034;-40
2022/01/26 08:59:03;;;;;;;8.82;4.50;;;;;;;19.10;44.30;101777.53;4966100;28;20125;-40
2022/01/26 09:01:28;;;;;;;9.77;4.60;;;;;;;19.06;44.35;101781.50;4983516;28;20045;-40
2022/01/26 09:03:54;;;;;;;6.53;4.38;;;;;;;19.03;44.03;101779.19;4957098;28;20038;-40
2022/01/26 09:06:19;;;;;;;6.78;4.50;;;;;;;19.00;44.20;101774.25;4972645;28;20131;-43
2022/01/26 09:08:50;;;;;;;5.13;3.45;;;;;;;18.99;44.15;101776.06;4967447;28;20033;-40
2022/01/26 09:11:20;;;;;;;6.88;3.55;;;;;;;18.99;44.09;101777.88;4987061;28;20042;-39
2022/01/26 09:13:47;;;;;;;5.07;3.80;;;;;;;18.96;43.93;101770.28;4965249;28;20146;-38
2022/01/26 09:16:18;;;;;;;4.85;3.75;;;;;;;18.96;43.86;101779.03;4933012;28;20774;-41
2022/01/26 09:18:51;;;;;;;8.27;4.60;;;;;;;18.95;43.87;101779.22;4955954;28;20035;-42
2022/01/26 09:21:18;;;;;;;7.95;3.97;;;;;;;18.93;43.92;101773.25;4945798;28;20122;-38
2022/01/26 09:23:44;;;;;;;5.82;3.67;;;;;;;18.95;43.70;101784.50;4948295;28;20046;-37
2022/01/26 09:26:09;;;;;;;5.90;4.32;;;;;;;18.97;43.52;101777.22;4964537;28;20043;-39
2022/01/26 09:28:35;;;;;;;6.20;3.70;;;;;;;18.98;43.51;101784.16;4961027;28;20062;-37
2022/01/26 09:31:01;;;;;;;9.50;3.95;;;;;;;18.97;43.42;101775.41;4962529;28;20390;-39
2022/01/26 09:33:26;;;;;;;5.50;3.75;;;;;;;18.99;43.44;101775.25;4967534;28;20037;-39
2022/01/26 09:35:52;;;;;;;5.72;3.88;;;;;;;18.99;43.50;101780.53;4964467;28;20035;-41
2022/01/26 09:38:18;;;;;;;8.40;3.63;;;;;;;18.99;43.40;101783.16;4961951;28;20035;-37
2022/01/26 09:40:46;;;;;;;3.92;3.22;;;;;;;18.98;43.37;101778.88;4965986;28;20030;-40
2022/01/26 09:43:13;;;;;;;6.95;3.33;;;;;;;18.96;43.29;101775.56;4954917;28;20039;-43
2022/01/26 09:45:39;;;;;;;7.82;3.28;;;;;;;18.97;43.37;101771.94;4963611;28;20088;-39
2022/01/26 09:48:05;;;;;;;5.75;3.47;;;;;;;18.95;43.31;101773.91;4966286;28;20027;-46
2022/01/26 09:50:32;;;;;;;7.72;4.13;;;;;;;18.94;43.50;101773.09;4947719;28;20070;-46
2022/01/26 09:52:58;;;;;;;4.28;3.00;;;;;;;18.90;43.52;101771.81;4961829;28;20034;-45
2022/01/26 09:55:25;;;;;;;5.97;3.13;;;;;;;18.87;43.51;101765.06;4959623;28;20492;-49
2022/01/26 09:57:57;;;;;;;4.25;3.28;;;;;;;18.86;43.54;101763.41;4959721;28;20117;-42
2022/01/26 10:00:23;;;;;;;5.20;3.75;;;;;;;18.84;43.54;101764.56;4963556;28;20590;-44
2022/01/26 10:02:57;;;;;;;7.05;3.88;;;;;;;18.81;44.05;101756.97;4961990;28;20039;-50
2022/01/26 10:05:23;;;;;;;6.80;3.90;;;;;;;18.82;44.25;101762.09;4961550;28;20043;-40
2022/01/26 10:08:08;;;;;;;11.05;4.28;;;;;;;18.79;44.32;101754.50;4963981;28;20034;-42
2022/01/26 10:15:27;;;;;;;33.55;4.72;;;;;;;18.78;44.61;101754.66;4966053;28;20410;-45
2022/01/26 10:17:02;;;;;;;22.35;6.15;;;;;;;18.73;44.86;101752.53;4964285;28;20053;-45
2022/01/26 10:19:19;;;;;;;24.85;6.10;;;;;;;18.73;44.39;101747.25;4961522;28;20049;-44
2022/01/26 10:21:50;;;;;;;13.20;4.53;;;;;;;18.73;44.20;101741.13;4948270;28;20046;-44
2022/01/26 10:24:16;;;;;;;16.17;6.20;;;;;;;18.72;43.87;101742.94;4965016;28;20536;-44
2022/01/26 10:26:49;;;;;;;10.40;5.72;;;;;;;18.70;42.93;101738.81;4948665;28;20410;-45
2022/01/26 10:29:18;;;;;;;10.00;5.30;;;;;;;18.67;42.19;101734.69;4968356;28;20051;-39
2022/01/26 10:31:44;;;;;;;13.30;6.72;;;;;;;18.64;41.23;101734.22;4962827;28;20030;-58
2022/01/26 10:34:13;;;;;;;11.38;6.80;;;;;;;18.59;40.40;101734.66;4964590;28;20513;-39
2022/01/26 10:36:42;;;;;;;10.20;7.43;;;;;;;18.57;39.70;101732.19;4966080;28;20046;-46
2022/01/26 10:39:35;;;;;;;19.58;8.88;;;;;;;18.54;38.67;101729.06;4969394;28;20034;-38
2022/01/26 10:42:07;;;;;;;9.50;7.50;;;;;;;18.55;39.25;101725.44;4944853;28;20035;-42
2022/01/26 10:44:41;;;;;;;12.90;8.32;;;;;;;18.56;39.20;101721.81;4959099;28;20105;-41
2022/01/26 10:47:08;;;;;;;9.00;7.00;;;;;;;18.58;39.47;101715.38;4955058;28;20630;-42
2022/01/26 10:54:52;;;;;;;12.45;6.28;;;;;;;18.64;39.92;101716.56;4966251;28;20133;-46
2022/01/26 10:57:19;;;;;;;8.23;6.38;;;;;;;18.66;39.99;101716.38;4947376;28;20054;-40
2022/01/26 10:59:47;;;;;;;9.13;5.10;;;;;;;18.66;40.02;101716.38;4962910;28;20030;-45
2022/01/26 11:02:13;;;;;;;8.73;5.18;;;;;;;18.65;40.26;101705.00;4965625;28;20062;-44
2022/01/26 11:04:42;;;;;;;7.10;4.43;;;;;;;18.63;40.71;101701.72;4965253;28;20039;-44
2022/01/26 11:07:14;;;;;;;7.15;5.05;;;;;;;18.61;40.59;101693.13;4961662;28;20438;-38
2022/01/26 11:09:43;;;;;;;7.30;5.07;;;;;;;18.61;40.66;101690.50;4961911;28;20034;-44
2022/01/26 11:12:31;;;;;;;7.38;5.07;;;;;;;18.61;40.87;101689.66;4969587;28;20054;-42
2022/01/26 11:15:05;;;;;;;6.47;5.45;;;;;;;18.60;40.95;101686.22;4980537;28;20045;-49
2022/01/26 11:17:36;;;;;;;8.23;4.78;;;;;;;18.59;41.14;101681.88;4984219;28;20031;-51
2022/01/26 11:20:13;;;;;;;7.35;4.07;;;;;;;18.57;41.03;101676.78;4962975;28;20035;-46
2022/01/26 11:22:57;;;;;;;10.45;5.28;;;;;;;18.54;41.41;101677.09;4983522;28;20057;-49
2022/01/26 11:25:25;;;;;;;5.68;4.60;;;;;;;18.56;41.76;101674.31;4983694;28;20030;-44
2022/01/26 11:27:53;;;;;;;11.48;4.63;;;;;;;18.55;42.09;101672.66;4985808;28;20029;-47
2022/01/26 11:30:29;;;;;;;10.85;4.38;;;;;;;18.53;42.03;101674.63;4982230;28;20027;-38
2022/01/26 11:33:02;;;;;;;4.90;3.90;;;;;;;18.52;42.12;101665.06;4967982;28;20034;-47
2022/01/26 11:35:39;;;;;;;5.53;4.32;;;;;;;18.49;42.13;101666.22;4986673;28;20049;-39
2022/01/26 11:38:39;;;;;;;7.70;4.30;;;;;;;18.48;42.11;101656.66;4982398;28;21759;-40
2022/01/26 11:47:20;;;;;;;4.88;4.07;;;;;;;18.40;42.49;101654.06;4983684;28;20057;-40
2022/01/26 11:49:50;;;;;;;7.65;4.60;;;;;;;18.43;42.51;101643.13;4981254;28;20035;-35
2022/01/26 11:52:26;;;;;;;4.88;3.78;;;;;;;18.43;42.57;101643.13;4983248;28;20834;-44
2022/01/26 11:54:56;;;;;;;9.85;4.53;;;;;;;18.46;42.56;101640.16;4984460;28;20029;-42
2022/01/26 11:57:36;;;;;;;7.68;4.15;;;;;;;18.48;42.88;101640.81;4967535;28;20133;-41
2022/01/26 12:00:07;;;;;;;6.63;4.10;;;;;;;18.51;43.38;101634.38;4983415;28;20062;-44
2022/01/26 12:05:13;;;;;;;10.00;5.20;;;;;;;18.64;44.86;101626.81;4982847;28;20046;-45
2022/01/26 12:07:57;;;;;;;16.05;9.93;;;;;;;18.78;46.73;101631.41;4965435;28;20029;-44
2022/01/26 12:10:27;;;;;;;13.88;7.53;;;;;;;18.96;46.67;101627.69;4964805;28;20401;-42
2022/01/26 12:13:04;;;;;;;10.57;7.03;;;;;;;18.97;46.64;101624.06;4955651;28;20042;-47
2022/01/26 12:15:34;;;;;;;154.38;28.65;;;;;;;18.97;47.98;101622.22;4983090;28;20513;-46
2022/01/26 12:18:17;;;;;;;598.63;208.48;;;;;;;19.20;51.08;101622.31;4979859;28;20049;-44
2022/01/26 12:34:41;;;;;;;70.32;29.90;;;;;;;19.51;60.31;101591.41;4984315;28;20034;-44
2022/01/26 12:37:17;;;;;;;49.53;18.92;;;;;;;19.43;56.93;101583.50;4960856;28;20031;-48
2022/01/26 12:45:24;;;;;;;43.75;16.65;;;;;;;19.34;53.26;101575.84;4982594;28;20104;-43
2022/01/26 12:47:52;;;;;;;42.70;16.35;;;;;;;19.28;52.80;101572.06;4984033;28;20030;-43
2022/01/26 12:50:19;;;;;;;45.85;15.55;;;;;;;19.22;52.56;101585.97;4966392;28;20113;-46
2022/01/26 12:52:47;;;;;;;39.95;14.13;;;;;;;19.16;52.47;101581.38;4984547;28;20371;-42
2022/01/26 12:55:22;;;;;;;43.38;16.08;;;;;;;19.10;52.12;101572.31;4984635;28;20134;-49
2022/01/26 12:57:48;;;;;;;42.20;15.10;;;;;;;19.07;51.75;101571.84;4965509;28;20065;-59
2022/01/26 13:00:14;;;;;;;35.55;14.57;;;;;;;19.04;51.31;101569.56;4985917;28;20026;-46
2022/01/26 13:02:40;;;;;;;39.97;13.43;;;;;;;19.01;50.98;101562.78;4973293;28;20045;-42
2022/01/26 13:05:06;;;;;;;36.35;12.50;;;;;;;18.99;50.80;101563.97;4982182;28;20027;-51
2022/01/26 13:07:32;;;;;;;31.17;11.65;;;;;;;18.97;50.61;101569.41;4981056;28;20478;-46
2022/01/26 13:09:57;;;;;;;28.75;12.25;;;;;;;19.00;50.91;101570.88;4979226;28;20030;-49
2022/01/26 13:12:30;;;;;;;28.85;11.25;;;;;;;19.01;51.76;101564.63;4982677;28;20088;-37
2022/01/26 13:15:07;;;;;;;34.53;12.25;;;;;;;19.00;51.63;101555.03;4980623;28;20057;-45
2022/01/26 13:17:39;;;;;;;25.27;10.57;;;;;;;19.02;51.94;101555.69;4958508;28;20046;-41
2022/01/26 13:56:53;;;;;;;17.45;7.22;;;;;;;18.71;49.43;101539.84;4987712;28;20046;-42
2022/01/26 13:59:28;;;;;;;15.75;7.05;;;;;;;18.68;49.15;101546.28;4963277;28;20363;-40
2022/01/26 14:01:54;;;;;;;17.92;6.85;;;;;;;18.66;48.87;101545.63;4964545;28;20709;-41
2022/01/26 14:04:19;;;;;;;15.25;6.45;;;;;;;18.65;48.79;101549.28;4967254;28;20073;-40
2022/01/26 14:06:47;;;;;;;18.70;6.63;;;;;;;18.65;48.62;101540.53;4980122;28;20485;-39
2022/01/26 14:09:13;;;;;;;19.83;7.63;;;;;;;18.63;48.53;101538.06;4980368;28;20640;-40